< Typhoon 200210 2002 Season Typhoon 200212 >
Typhoon 200211 (FUNG-WONG)
General InformationTrack Information on Google MapsDetailed Wind InformationList of All Images || NewsDisaster Info.ResourceGoogle EarthGE AnimationAtom FeedGeoJSON
Detalied Best Track (Time Zone = UTC)
Year Month Day Hour Lat. Long. Pressure (hPa) Wind (kt) Class Image Chart
2002 7 18 18 21.4 149.7 1006 0 2 Image Chart
2002 7 19 00 21.8 150.6 1006 0 2 Image Chart
2002 7 19 06 23.7 149.1 1006 0 2 Image Chart
2002 7 19 12 24.0 146.6 1004 0 2 Image Chart
2002 7 19 18 23.7 144.8 1004 0 2 Image Chart
2002 7 20 00 23.5 143.4 1004 0 2 Image Chart
2002 7 20 06 23.0 142.0 1002 0 2 Image Chart
2002 7 20 12 23.3 141.0 1002 0 2 Image Chart
2002 7 20 18 23.4 140.5 1000 35 3 Image Chart
2002 7 21 00 24.0 139.0 1000 35 3 Image Chart
2002 7 21 06 23.6 137.4 996 40 3 Image Chart
2002 7 21 12 23.6 136.5 996 40 3 Image Chart
2002 7 21 18 23.5 135.6 992 45 3 Image Chart
2002 7 22 00 23.5 134.7 990 50 4 Image Chart
2002 7 22 06 23.3 133.8 985 50 4 Image Chart
2002 7 22 12 23.3 133.2 985 50 4 Image Chart
2002 7 22 18 23.1 132.5 985 50 4 Image Chart
2002 7 23 00 23.0 131.9 985 50 4 Image Chart
2002 7 23 06 22.9 131.1 975 60 4 Image Chart
2002 7 23 12 22.6 130.4 965 70 5 Image Chart
2002 7 23 18 22.1 130.1 960 70 5 Image Chart
2002 7 24 00 21.7 130.1 960 70 5 Image Chart
2002 7 24 06 21.3 130.5 960 70 5 Image Chart
2002 7 24 12 20.9 131.4 965 65 5 Image Chart
2002 7 24 18 20.6 132.6 965 65 5 Image Chart
2002 7 25 00 20.6 133.7 970 60 4 Image Chart
2002 7 25 06 21.8 134.8 970 60 4 Image Chart
2002 7 25 12 23.3 135.4 975 55 4 Image Chart
2002 7 25 18 24.7 135.1 975 55 4 Image Chart
2002 7 26 00 25.7 133.9 975 55 4 Image Chart
2002 7 26 06 27.1 133.9 980 45 3 Image Chart
2002 7 26 12 28.3 133.3 985 45 3 Image Chart
2002 7 26 15 29.1 132.8 985 45 3 Image Chart
2002 7 26 18 30.0 131.9 990 40 3 Image Chart
2002 7 26 21 30.1 131.1 996 40 3 Image Chart
2002 7 27 00 30.5 130.3 1000 35 3 Image Chart
2002 7 27 03 30.9 130.0 1002 0 2 Image Chart
2002 7 27 06 31.3 129.8 1004 0 2 Image Chart
Japan Meteorological Agency Best Track Data | Correction Date : 2006-01-18
< Typhoon 200210 2002 Season Typhoon 200212 >

Help